sensor_id;sensor_type;location;lat;lon;timestamp;P1;durP1;ratioP1;P2;durP2;ratioP2
67053;SDS011;53960;51.826;5.850;2023-07-08T00:02:10;8.00;;;2.63;;
67053;SDS011;53960;51.826;5.850;2023-07-08T00:04:37;6.43;;;2.40;;
67053;SDS011;53960;51.826;5.850;2023-07-08T00:07:03;7.97;;;2.13;;
67053;SDS011;53960;51.826;5.850;2023-07-08T00:09:29;8.55;;;2.50;;
67053;SDS011;53960;51.826;5.850;2023-07-08T00:11:55;7.95;;;2.58;;
67053;SDS011;53960;51.826;5.850;2023-07-08T00:14:22;6.97;;;2.50;;
67053;SDS011;53960;51.826;5.850;2023-07-08T00:16:48;8.07;;;2.90;;
67053;SDS011;53960;51.826;5.850;2023-07-08T00:19:14;7.63;;;2.90;;
67053;SDS011;53960;51.826;5.850;2023-07-08T00:21:48;8.43;;;2.78;;
67053;SDS011;53960;51.826;5.850;2023-07-08T00:24:14;7.97;;;2.50;;
67053;SDS011;53960;51.826;5.850;2023-07-08T00:26:40;10.00;;;2.63;;
67053;SDS011;53960;51.826;5.850;2023-07-08T00:29:08;7.03;;;2.50;;
67053;SDS011;53960;51.826;5.850;2023-07-08T00:31:35;7.20;;;2.60;;
67053;SDS011;53960;51.826;5.850;2023-07-08T00:34:01;6.83;;;2.23;;
67053;SDS011;53960;51.826;5.850;2023-07-08T00:36:28;7.40;;;2.60;;
67053;SDS011;53960;51.826;5.850;2023-07-08T00:38:54;7.70;;;2.80;;
67053;SDS011;53960;51.826;5.850;2023-07-08T00:41:21;8.30;;;2.90;;
67053;SDS011;53960;51.826;5.850;2023-07-08T00:43:49;7.70;;;2.75;;
67053;SDS011;53960;51.826;5.850;2023-07-08T00:51:43;8.50;;;3.08;;
67053;SDS011;53960;51.826;5.850;2023-07-08T00:54:13;7.93;;;2.70;;
67053;SDS011;53960;51.826;5.850;2023-07-08T00:59:33;7.72;;;2.28;;
67053;SDS011;53960;51.826;5.850;2023-07-08T01:02:29;8.30;;;2.47;;
67053;SDS011;53960;51.826;5.850;2023-07-08T01:05:07;7.40;;;2.70;;
67053;SDS011;53960;51.826;5.850;2023-07-08T01:07:36;9.20;;;2.30;;
67053;SDS011;53960;51.826;5.850;2023-07-08T01:10:03;8.35;;;2.80;;
67053;SDS011;53960;51.826;5.850;2023-07-08T01:12:34;7.72;;;2.50;;
67053;SDS011;53960;51.826;5.850;2023-07-08T01:15:05;7.70;;;2.35;;
67053;SDS011;53960;51.826;5.850;2023-07-08T01:17:31;6.70;;;2.60;;
67053;SDS011;53960;51.826;5.850;2023-07-08T01:19:58;8.07;;;2.57;;
67053;SDS011;53960;51.826;5.850;2023-07-08T01:22:24;8.35;;;2.65;;
67053;SDS011;53960;51.826;5.850;2023-07-08T01:24:50;8.67;;;3.17;;
67053;SDS011;53960;51.826;5.850;2023-07-08T01:27:16;7.95;;;2.60;;
67053;SDS011;53960;51.826;5.850;2023-07-08T01:29:44;7.10;;;2.50;;
67053;SDS011;53960;51.826;5.850;2023-07-08T01:32:12;7.53;;;2.28;;
67053;SDS011;53960;51.826;5.850;2023-07-08T01:34:43;7.93;;;2.53;;
67053;SDS011;53960;51.826;5.850;2023-07-08T01:37:26;7.68;;;2.50;;
67053;SDS011;53960;51.826;5.850;2023-07-08T01:40:17;7.57;;;2.42;;
67053;SDS011;53960;51.826;5.850;2023-07-08T01:42:49;8.63;;;2.53;;
67053;SDS011;53960;51.826;5.850;2023-07-08T01:45:17;10.80;;;2.95;;
67053;SDS011;53960;51.826;5.850;2023-07-08T01:47:46;8.60;;;2.67;;
67053;SDS011;53960;51.826;5.850;2023-07-08T01:50:16;7.88;;;2.63;;
67053;SDS011;53960;51.826;5.850;2023-07-08T01:52:43;10.50;;;2.65;;
67053;SDS011;53960;51.826;5.850;2023-07-08T01:55:08;10.40;;;3.03;;
67053;SDS011;53960;51.826;5.850;2023-07-08T01:57:34;8.83;;;2.73;;
67053;SDS011;53960;51.826;5.850;2023-07-08T02:00:00;9.23;;;2.90;;
67053;SDS011;53960;51.826;5.850;2023-07-08T02:02:26;9.48;;;2.90;;
67053;SDS011;53960;51.826;5.850;2023-07-08T02:04:51;7.85;;;2.90;;
67053;SDS011;53960;51.826;5.850;2023-07-08T02:07:17;8.70;;;2.87;;
67053;SDS011;53960;51.826;5.850;2023-07-08T02:09:42;9.83;;;3.23;;
67053;SDS011;53960;51.826;5.850;2023-07-08T02:12:08;8.15;;;2.70;;
67053;SDS011;53960;51.826;5.850;2023-07-08T02:14:34;8.60;;;2.73;;
67053;SDS011;53960;51.826;5.850;2023-07-08T02:16:59;8.23;;;3.22;;
67053;SDS011;53960;51.826;5.850;2023-07-08T02:19:25;7.07;;;2.60;;
67053;SDS011;53960;51.826;5.850;2023-07-08T02:21:52;10.13;;;3.13;;
67053;SDS011;53960;51.826;5.850;2023-07-08T02:24:18;8.00;;;2.90;;
67053;SDS011;53960;51.826;5.850;2023-07-08T02:26:43;7.80;;;2.90;;
67053;SDS011;53960;51.826;5.850;2023-07-08T02:29:12;8.13;;;3.33;;
67053;SDS011;53960;51.826;5.850;2023-07-08T02:31:37;7.15;;;2.38;;
67053;SDS011;53960;51.826;5.850;2023-07-08T02:34:03;9.27;;;3.47;;
67053;SDS011;53960;51.826;5.850;2023-07-08T02:36:28;8.67;;;2.83;;
67053;SDS011;53960;51.826;5.850;2023-07-08T02:38:54;7.78;;;2.83;;
67053;SDS011;53960;51.826;5.850;2023-07-08T02:41:19;7.27;;;2.60;;
67053;SDS011;53960;51.826;5.850;2023-07-08T02:43:44;7.63;;;3.20;;
67053;SDS011;53960;51.826;5.850;2023-07-08T02:46:10;8.07;;;3.30;;
67053;SDS011;53960;51.826;5.850;2023-07-08T02:48:36;7.73;;;3.03;;
67053;SDS011;53960;51.826;5.850;2023-07-08T02:51:02;8.53;;;3.43;;
67053;SDS011;53960;51.826;5.850;2023-07-08T02:53:29;7.68;;;3.25;;
67053;SDS011;53960;51.826;5.850;2023-07-08T02:55:55;8.30;;;2.90;;
67053;SDS011;53960;51.826;5.850;2023-07-08T02:58:20;11.63;;;3.30;;
67053;SDS011;53960;51.826;5.850;2023-07-08T03:00:50;8.40;;;3.30;;
67053;SDS011;53960;51.826;5.850;2023-07-08T03:03:19;9.85;;;3.03;;
67053;SDS011;53960;51.826;5.850;2023-07-08T03:05:53;7.60;;;2.90;;
67053;SDS011;53960;51.826;5.850;2023-07-08T03:08:20;7.45;;;3.17;;
67053;SDS011;53960;51.826;5.850;2023-07-08T03:10:53;8.00;;;3.17;;
67053;SDS011;53960;51.826;5.850;2023-07-08T03:13:20;7.60;;;3.28;;
67053;SDS011;53960;51.826;5.850;2023-07-08T03:15:45;8.00;;;2.80;;
67053;SDS011;53960;51.826;5.850;2023-07-08T03:18:11;8.10;;;3.08;;
67053;SDS011;53960;51.826;5.850;2023-07-08T03:20:39;8.37;;;3.20;;
67053;SDS011;53960;51.826;5.850;2023-07-08T03:23:05;9.38;;;3.10;;
67053;SDS011;53960;51.826;5.850;2023-07-08T03:25:30;8.30;;;3.13;;
67053;SDS011;53960;51.826;5.850;2023-07-08T03:27:55;7.60;;;2.97;;
67053;SDS011;53960;51.826;5.850;2023-07-08T03:30:22;9.93;;;3.20;;
67053;SDS011;53960;51.826;5.850;2023-07-08T03:32:48;8.40;;;3.35;;
67053;SDS011;53960;51.826;5.850;2023-07-08T03:35:14;8.23;;;3.00;;
67053;SDS011;53960;51.826;5.850;2023-07-08T03:37:39;8.13;;;2.83;;
67053;SDS011;53960;51.826;5.850;2023-07-08T03:40:07;8.02;;;3.08;;
67053;SDS011;53960;51.826;5.850;2023-07-08T03:42:34;7.60;;;3.10;;
67053;SDS011;53960;51.826;5.850;2023-07-08T03:45:00;11.13;;;3.50;;
67053;SDS011;53960;51.826;5.850;2023-07-08T03:47:25;8.50;;;3.20;;
67053;SDS011;53960;51.826;5.850;2023-07-08T03:49:51;8.55;;;3.42;;
67053;SDS011;53960;51.826;5.850;2023-07-08T03:52:16;8.87;;;3.10;;
67053;SDS011;53960;51.826;5.850;2023-07-08T03:54:42;7.47;;;2.83;;
67053;SDS011;53960;51.826;5.850;2023-07-08T03:57:10;8.27;;;3.20;;
67053;SDS011;53960;51.826;5.850;2023-07-08T03:59:35;7.28;;;2.58;;
67053;SDS011;53960;51.826;5.850;2023-07-08T04:02:01;7.93;;;3.00;;
67053;SDS011;53960;51.826;5.850;2023-07-08T04:04:26;8.55;;;3.22;;
67053;SDS011;53960;51.826;5.850;2023-07-08T04:06:52;8.70;;;3.00;;
67053;SDS011;53960;51.826;5.850;2023-07-08T04:09:18;8.50;;;3.15;;
67053;SDS011;53960;51.826;5.850;2023-07-08T04:11:44;9.37;;;3.50;;
67053;SDS011;53960;51.826;5.850;2023-07-08T04:14:09;9.40;;;3.40;;
67053;SDS011;53960;51.826;5.850;2023-07-08T04:19:12;8.53;;;2.77;;
67053;SDS011;53960;51.826;5.850;2023-07-08T04:21:40;7.28;;;2.70;;
67053;SDS011;53960;51.826;5.850;2023-07-08T04:24:08;8.05;;;2.78;;
67053;SDS011;53960;51.826;5.850;2023-07-08T04:26:35;8.52;;;2.63;;
67053;SDS011;53960;51.826;5.850;2023-07-08T04:29:01;8.53;;;2.63;;
67053;SDS011;53960;51.826;5.850;2023-07-08T04:31:27;7.40;;;2.90;;
67053;SDS011;53960;51.826;5.850;2023-07-08T04:33:52;8.83;;;2.80;;
67053;SDS011;53960;51.826;5.850;2023-07-08T04:36:18;7.72;;;3.40;;
67053;SDS011;53960;51.826;5.850;2023-07-08T04:38:46;8.07;;;2.77;;
67053;SDS011;53960;51.826;5.850;2023-07-08T04:41:12;8.00;;;2.80;;
67053;SDS011;53960;51.826;5.850;2023-07-08T04:43:38;7.60;;;3.00;;
67053;SDS011;53960;51.826;5.850;2023-07-08T04:46:03;8.00;;;2.77;;
67053;SDS011;53960;51.826;5.850;2023-07-08T04:48:42;8.52;;;2.85;;
67053;SDS011;53960;51.826;5.850;2023-07-08T04:51:07;8.87;;;3.23;;
67053;SDS011;53960;51.826;5.850;2023-07-08T04:53:33;8.70;;;3.15;;
67053;SDS011;53960;51.826;5.850;2023-07-08T04:55:58;7.57;;;3.07;;
67053;SDS011;53960;51.826;5.850;2023-07-08T04:58:24;8.75;;;2.97;;
67053;SDS011;53960;51.826;5.850;2023-07-08T05:00:50;9.87;;;3.00;;
67053;SDS011;53960;51.826;5.850;2023-07-08T05:03:15;7.97;;;3.00;;
67053;SDS011;53960;51.826;5.850;2023-07-08T05:05:41;8.07;;;2.90;;
67053;SDS011;53960;51.826;5.850;2023-07-08T05:08:06;10.70;;;3.40;;
67053;SDS011;53960;51.826;5.850;2023-07-08T05:10:32;7.67;;;3.20;;
67053;SDS011;53960;51.826;5.850;2023-07-08T05:12:58;8.27;;;2.97;;
67053;SDS011;53960;51.826;5.850;2023-07-08T05:15:23;8.80;;;3.10;;
67053;SDS011;53960;51.826;5.850;2023-07-08T05:17:49;7.63;;;3.10;;
67053;SDS011;53960;51.826;5.850;2023-07-08T05:20:15;8.82;;;3.20;;
67053;SDS011;53960;51.826;5.850;2023-07-08T05:22:43;8.68;;;3.22;;
67053;SDS011;53960;51.826;5.850;2023-07-08T05:25:10;8.85;;;2.80;;
67053;SDS011;53960;51.826;5.850;2023-07-08T05:27:37;7.45;;;2.97;;
67053;SDS011;53960;51.826;5.850;2023-07-08T05:30:03;7.70;;;3.20;;
67053;SDS011;53960;51.826;5.850;2023-07-08T05:32:30;7.90;;;2.97;;
67053;SDS011;53960;51.826;5.850;2023-07-08T05:34:56;9.23;;;3.25;;
67053;SDS011;53960;51.826;5.850;2023-07-08T05:37:21;8.73;;;3.23;;
67053;SDS011;53960;51.826;5.850;2023-07-08T05:39:50;8.80;;;3.33;;
67053;SDS011;53960;51.826;5.850;2023-07-08T05:42:17;10.27;;;3.30;;
67053;SDS011;53960;51.826;5.850;2023-07-08T05:44:42;8.00;;;2.90;;
67053;SDS011;53960;51.826;5.850;2023-07-08T05:47:07;8.60;;;3.30;;
67053;SDS011;53960;51.826;5.850;2023-07-08T05:49:33;8.60;;;3.00;;
67053;SDS011;53960;51.826;5.850;2023-07-08T05:51:58;7.78;;;3.00;;
67053;SDS011;53960;51.826;5.850;2023-07-08T05:54:30;8.77;;;3.42;;
67053;SDS011;53960;51.826;5.850;2023-07-08T05:56:55;8.20;;;3.27;;
67053;SDS011;53960;51.826;5.850;2023-07-08T05:59:21;8.00;;;2.90;;
67053;SDS011;53960;51.826;5.850;2023-07-08T06:01:46;8.87;;;3.07;;
67053;SDS011;53960;51.826;5.850;2023-07-08T06:04:12;8.18;;;2.85;;
67053;SDS011;53960;51.826;5.850;2023-07-08T06:06:37;10.27;;;3.30;;
67053;SDS011;53960;51.826;5.850;2023-07-08T06:09:02;7.30;;;2.90;;
67053;SDS011;53960;51.826;5.850;2023-07-08T06:11:29;8.25;;;2.75;;
67053;SDS011;53960;51.826;5.850;2023-07-08T06:13:54;7.17;;;2.97;;
67053;SDS011;53960;51.826;5.850;2023-07-08T06:16:19;10.43;;;3.10;;
67053;SDS011;53960;51.826;5.850;2023-07-08T06:18:45;8.00;;;2.97;;
67053;SDS011;53960;51.826;5.850;2023-07-08T06:21:10;10.45;;;3.17;;
67053;SDS011;53960;51.826;5.850;2023-07-08T06:23:35;7.60;;;2.93;;
67053;SDS011;53960;51.826;5.850;2023-07-08T06:26:01;9.03;;;3.10;;
67053;SDS011;53960;51.826;5.850;2023-07-08T06:28:26;9.57;;;2.83;;
67053;SDS011;53960;51.826;5.850;2023-07-08T06:30:52;8.18;;;3.30;;
67053;SDS011;53960;51.826;5.850;2023-07-08T06:33:17;8.47;;;2.77;;
67053;SDS011;53960;51.826;5.850;2023-07-08T06:35:43;9.23;;;2.90;;
67053;SDS011;53960;51.826;5.850;2023-07-08T06:38:08;8.38;;;3.17;;
67053;SDS011;53960;51.826;5.850;2023-07-08T06:40:34;7.83;;;3.00;;
67053;SDS011;53960;51.826;5.850;2023-07-08T06:43:02;8.25;;;2.80;;
67053;SDS011;53960;51.826;5.850;2023-07-08T06:45:28;7.70;;;3.03;;
67053;SDS011;53960;51.826;5.850;2023-07-08T06:47:53;7.50;;;3.00;;
67053;SDS011;53960;51.826;5.850;2023-07-08T06:50:18;8.70;;;3.10;;
67053;SDS011;53960;51.826;5.850;2023-07-08T06:52:44;8.97;;;3.23;;
67053;SDS011;53960;51.826;5.850;2023-07-08T06:55:09;9.00;;;3.38;;
67053;SDS011;53960;51.826;5.850;2023-07-08T06:57:35;8.07;;;2.90;;
67053;SDS011;53960;51.826;5.850;2023-07-08T07:00:08;7.30;;;3.08;;
67053;SDS011;53960;51.826;5.850;2023-07-08T07:02:35;8.18;;;3.15;;
67053;SDS011;53960;51.826;5.850;2023-07-08T07:05:01;9.30;;;3.10;;
67053;SDS011;53960;51.826;5.850;2023-07-08T07:07:27;10.23;;;3.00;;
67053;SDS011;53960;51.826;5.850;2023-07-08T07:09:53;7.50;;;2.87;;
67053;SDS011;53960;51.826;5.850;2023-07-08T07:12:19;8.52;;;3.10;;
67053;SDS011;53960;51.826;5.850;2023-07-08T07:14:45;9.48;;;3.28;;
67053;SDS011;53960;51.826;5.850;2023-07-08T07:17:11;8.07;;;2.93;;
67053;SDS011;53960;51.826;5.850;2023-07-08T07:19:36;8.70;;;3.20;;
67053;SDS011;53960;51.826;5.850;2023-07-08T07:22:02;8.38;;;2.88;;
67053;SDS011;53960;51.826;5.850;2023-07-08T07:24:27;10.27;;;3.20;;
67053;SDS011;53960;51.826;5.850;2023-07-08T07:26:53;8.93;;;2.90;;
67053;SDS011;53960;51.826;5.850;2023-07-08T07:29:21;8.75;;;3.10;;
67053;SDS011;53960;51.826;5.850;2023-07-08T07:31:47;7.70;;;2.80;;
67053;SDS011;53960;51.826;5.850;2023-07-08T07:34:13;9.00;;;2.83;;
67053;SDS011;53960;51.826;5.850;2023-07-08T07:36:40;8.38;;;3.47;;
67053;SDS011;53960;51.826;5.850;2023-07-08T07:39:05;8.57;;;3.23;;
67053;SDS011;53960;51.826;5.850;2023-07-08T07:41:31;10.73;;;3.13;;
67053;SDS011;53960;51.826;5.850;2023-07-08T07:43:56;9.37;;;3.07;;
67053;SDS011;53960;51.826;5.850;2023-07-08T07:46:22;8.90;;;3.57;;
67053;SDS011;53960;51.826;5.850;2023-07-08T07:48:47;8.43;;;3.10;;
67053;SDS011;53960;51.826;5.850;2023-07-08T07:51:13;12.07;;;3.30;;
67053;SDS011;53960;51.826;5.850;2023-07-08T07:53:39;11.52;;;3.30;;
67053;SDS011;53960;51.826;5.850;2023-07-08T07:56:05;8.33;;;3.53;;
67053;SDS011;53960;51.826;5.850;2023-07-08T07:58:31;9.23;;;3.35;;
67053;SDS011;53960;51.826;5.850;2023-07-08T08:00:56;8.95;;;3.10;;
67053;SDS011;53960;51.826;5.850;2023-07-08T08:03:22;8.83;;;3.13;;
67053;SDS011;53960;51.826;5.850;2023-07-08T08:05:48;11.13;;;3.45;;
67053;SDS011;53960;51.826;5.850;2023-07-08T08:08:13;8.73;;;3.70;;
67053;SDS011;53960;51.826;5.850;2023-07-08T08:10:39;9.18;;;3.28;;
67053;SDS011;53960;51.826;5.850;2023-07-08T08:13:04;9.63;;;3.10;;
67053;SDS011;53960;51.826;5.850;2023-07-08T08:15:30;9.33;;;3.70;;
67053;SDS011;53960;51.826;5.850;2023-07-08T08:17:56;9.30;;;3.92;;
67053;SDS011;53960;51.826;5.850;2023-07-08T08:20:22;10.13;;;3.57;;
67053;SDS011;53960;51.826;5.850;2023-07-08T08:22:49;11.20;;;3.70;;
67053;SDS011;53960;51.826;5.850;2023-07-08T08:25:15;10.33;;;4.03;;
67053;SDS011;53960;51.826;5.850;2023-07-08T08:27:42;13.73;;;3.97;;
67053;SDS011;53960;51.826;5.850;2023-07-08T08:30:09;11.20;;;3.55;;
67053;SDS011;53960;51.826;5.850;2023-07-08T08:32:35;11.40;;;3.80;;
67053;SDS011;53960;51.826;5.850;2023-07-08T08:35:00;9.67;;;3.87;;
67053;SDS011;53960;51.826;5.850;2023-07-08T08:37:26;10.07;;;3.63;;
67053;SDS011;53960;51.826;5.850;2023-07-08T08:39:51;10.07;;;3.53;;
67053;SDS011;53960;51.826;5.850;2023-07-08T08:42:20;9.00;;;3.67;;
67053;SDS011;53960;51.826;5.850;2023-07-08T08:44:52;11.35;;;3.80;;
67053;SDS011;53960;51.826;5.850;2023-07-08T08:47:35;10.20;;;3.60;;
67053;SDS011;53960;51.826;5.850;2023-07-08T08:50:10;8.93;;;3.63;;
67053;SDS011;53960;51.826;5.850;2023-07-08T08:52:51;9.63;;;4.25;;
67053;SDS011;53960;51.826;5.850;2023-07-08T08:55:19;10.40;;;4.30;;
67053;SDS011;53960;51.826;5.850;2023-07-08T08:58:34;8.33;;;3.67;;
67053;SDS011;53960;51.826;5.850;2023-07-08T09:03:24;9.40;;;4.35;;
67053;SDS011;53960;51.826;5.850;2023-07-08T09:06:00;10.07;;;4.05;;
67053;SDS011;53960;51.826;5.850;2023-07-08T09:08:34;10.90;;;4.00;;
67053;SDS011;53960;51.826;5.850;2023-07-08T09:11:01;11.13;;;4.53;;
67053;SDS011;53960;51.826;5.850;2023-07-08T09:13:36;8.68;;;4.15;;
67053;SDS011;53960;51.826;5.850;2023-07-08T09:16:06;11.60;;;4.47;;
67053;SDS011;53960;51.826;5.850;2023-07-08T09:18:38;10.60;;;4.00;;
67053;SDS011;53960;51.826;5.850;2023-07-08T09:21:16;11.20;;;4.50;;
67053;SDS011;53960;51.826;5.850;2023-07-08T09:23:46;9.77;;;4.10;;
67053;SDS011;53960;51.826;5.850;2023-07-08T09:26:16;10.00;;;4.00;;
67053;SDS011;53960;51.826;5.850;2023-07-08T09:28:45;9.23;;;4.10;;
67053;SDS011;53960;51.826;5.850;2023-07-08T09:31:20;9.50;;;4.20;;
67053;SDS011;53960;51.826;5.850;2023-07-08T09:33:46;9.88;;;4.78;;
67053;SDS011;53960;51.826;5.850;2023-07-08T09:36:24;9.87;;;4.27;;
67053;SDS011;53960;51.826;5.850;2023-07-08T09:38:50;10.23;;;4.63;;
67053;SDS011;53960;51.826;5.850;2023-07-08T09:41:29;10.43;;;4.20;;
67053;SDS011;53960;51.826;5.850;2023-07-08T09:44:02;11.10;;;4.72;;
67053;SDS011;53960;51.826;5.850;2023-07-08T09:46:48;9.45;;;4.15;;
67053;SDS011;53960;51.826;5.850;2023-07-08T09:49:24;10.85;;;4.57;;
67053;SDS011;53960;51.826;5.850;2023-07-08T09:52:00;11.57;;;4.57;;
67053;SDS011;53960;51.826;5.850;2023-07-08T09:54:27;10.63;;;4.80;;
67053;SDS011;53960;51.826;5.850;2023-07-08T09:57:08;11.68;;;4.78;;
67053;SDS011;53960;51.826;5.850;2023-07-08T09:59:43;10.63;;;4.78;;
67053;SDS011;53960;51.826;5.850;2023-07-08T10:02:29;12.63;;;5.00;;
67053;SDS011;53960;51.826;5.850;2023-07-08T10:05:31;11.77;;;4.63;;
67053;SDS011;53960;51.826;5.850;2023-07-08T10:08:00;11.73;;;4.70;;
67053;SDS011;53960;51.826;5.850;2023-07-08T10:10:34;11.15;;;5.15;;
67053;SDS011;53960;51.826;5.850;2023-07-08T10:13:03;10.02;;;4.43;;
67053;SDS011;53960;51.826;5.850;2023-07-08T10:15:51;11.93;;;4.63;;
67053;SDS011;53960;51.826;5.850;2023-07-08T10:18:24;10.88;;;4.70;;
67053;SDS011;53960;51.826;5.850;2023-07-08T10:26:35;11.32;;;4.90;;
67053;SDS011;53960;51.826;5.850;2023-07-08T10:37:14;11.30;;;4.78;;
67053;SDS011;53960;51.826;5.850;2023-07-08T10:42:23;10.83;;;4.97;;
67053;SDS011;53960;51.826;5.850;2023-07-08T10:45:18;10.48;;;4.60;;
67053;SDS011;53960;51.826;5.850;2023-07-08T10:47:50;11.20;;;4.63;;
67053;SDS011;53960;51.826;5.850;2023-07-08T10:55:59;11.57;;;4.93;;
67053;SDS011;53960;51.826;5.850;2023-07-08T11:07:22;10.43;;;5.40;;
67053;SDS011;53960;51.826;5.850;2023-07-08T11:10:15;12.20;;;5.33;;
67053;SDS011;53960;51.826;5.850;2023-07-08T11:12:54;12.05;;;5.10;;
67053;SDS011;53960;51.826;5.850;2023-07-08T11:15:30;12.05;;;5.10;;
67053;SDS011;53960;51.826;5.850;2023-07-08T11:18:04;10.98;;;4.82;;
67053;SDS011;53960;51.826;5.850;2023-07-08T11:20:41;11.52;;;4.97;;
67053;SDS011;53960;51.826;5.850;2023-07-08T11:23:31;11.70;;;4.90;;
67053;SDS011;53960;51.826;5.850;2023-07-08T11:26:16;12.02;;;5.07;;
67053;SDS011;53960;51.826;5.850;2023-07-08T11:28:53;11.90;;;4.97;;
67053;SDS011;53960;51.826;5.850;2023-07-08T11:31:22;11.23;;;5.03;;
67053;SDS011;53960;51.826;5.850;2023-07-08T11:33:49;9.98;;;5.18;;
67053;SDS011;53960;51.826;5.850;2023-07-08T11:36:15;11.93;;;4.97;;
67053;SDS011;53960;51.826;5.850;2023-07-08T11:38:49;11.45;;;5.00;;
67053;SDS011;53960;51.826;5.850;2023-07-08T11:41:17;12.25;;;5.00;;
67053;SDS011;53960;51.826;5.850;2023-07-08T11:43:50;12.27;;;5.32;;
67053;SDS011;53960;51.826;5.850;2023-07-08T11:46:20;12.90;;;5.57;;
67053;SDS011;53960;51.826;5.850;2023-07-08T11:48:51;13.73;;;5.27;;
67053;SDS011;53960;51.826;5.850;2023-07-08T11:51:19;11.95;;;5.13;;
67053;SDS011;53960;51.826;5.850;2023-07-08T11:53:59;11.68;;;5.47;;
67053;SDS011;53960;51.826;5.850;2023-07-08T11:59:23;14.00;;;4.80;;
67053;SDS011;53960;51.826;5.850;2023-07-08T12:02:04;11.37;;;4.90;;
67053;SDS011;53960;51.826;5.850;2023-07-08T12:07:46;12.07;;;4.97;;
67053;SDS011;53960;51.826;5.850;2023-07-08T12:12:44;11.38;;;5.15;;
67053;SDS011;53960;51.826;5.850;2023-07-08T12:15:12;12.97;;;5.50;;
67053;SDS011;53960;51.826;5.850;2023-07-08T12:17:47;11.60;;;5.35;;
67053;SDS011;53960;51.826;5.850;2023-07-08T12:20:26;11.20;;;5.32;;
67053;SDS011;53960;51.826;5.850;2023-07-08T12:22:54;10.27;;;5.25;;
67053;SDS011;53960;51.826;5.850;2023-07-08T12:25:21;11.43;;;4.90;;
67053;SDS011;53960;51.826;5.850;2023-07-08T12:27:51;10.97;;;4.93;;
67053;SDS011;53960;51.826;5.850;2023-07-08T12:30:17;11.38;;;4.78;;
67053;SDS011;53960;51.826;5.850;2023-07-08T12:32:42;12.53;;;5.10;;
67053;SDS011;53960;51.826;5.850;2023-07-08T12:38:02;10.95;;;4.57;;
67053;SDS011;53960;51.826;5.850;2023-07-08T12:40:43;12.10;;;5.15;;
67053;SDS011;53960;51.826;5.850;2023-07-08T12:43:09;13.13;;;4.57;;
67053;SDS011;53960;51.826;5.850;2023-07-08T12:45:35;10.77;;;5.28;;
67053;SDS011;53960;51.826;5.850;2023-07-08T12:48:01;11.18;;;5.32;;
67053;SDS011;53960;51.826;5.850;2023-07-08T12:50:27;12.40;;;5.10;;
67053;SDS011;53960;51.826;5.850;2023-07-08T12:52:53;11.25;;;5.10;;
67053;SDS011;53960;51.826;5.850;2023-07-08T12:55:19;10.67;;;5.40;;
67053;SDS011;53960;51.826;5.850;2023-07-08T12:57:47;10.95;;;4.93;;
67053;SDS011;53960;51.826;5.850;2023-07-08T13:00:21;12.48;;;4.80;;
67053;SDS011;53960;51.826;5.850;2023-07-08T13:02:52;11.02;;;4.97;;
67053;SDS011;53960;51.826;5.850;2023-07-08T13:05:22;11.10;;;5.28;;
67053;SDS011;53960;51.826;5.850;2023-07-08T13:07:48;11.23;;;4.83;;
67053;SDS011;53960;51.826;5.850;2023-07-08T13:10:19;12.02;;;5.28;;
67053;SDS011;53960;51.826;5.850;2023-07-08T13:12:48;9.98;;;4.60;;
67053;SDS011;53960;51.826;5.850;2023-07-08T13:15:21;12.07;;;4.85;;
67053;SDS011;53960;51.826;5.850;2023-07-08T13:18:04;11.27;;;5.00;;
67053;SDS011;53960;51.826;5.850;2023-07-08T13:20:29;11.30;;;5.30;;
67053;SDS011;53960;51.826;5.850;2023-07-08T13:23:00;11.98;;;5.35;;
67053;SDS011;53960;51.826;5.850;2023-07-08T13:25:29;10.67;;;5.33;;
67053;SDS011;53960;51.826;5.850;2023-07-08T13:28:00;11.43;;;5.30;;
67053;SDS011;53960;51.826;5.850;2023-07-08T13:33:22;14.40;;;5.20;;
67053;SDS011;53960;51.826;5.850;2023-07-08T13:35:49;11.38;;;4.97;;
67053;SDS011;53960;51.826;5.850;2023-07-08T13:38:20;12.87;;;5.17;;
67053;SDS011;53960;51.826;5.850;2023-07-08T13:40:59;11.35;;;4.80;;
67053;SDS011;53960;51.826;5.850;2023-07-08T13:43:28;10.75;;;4.80;;
67053;SDS011;53960;51.826;5.850;2023-07-08T13:45:56;11.93;;;4.82;;
67053;SDS011;53960;51.826;5.850;2023-07-08T13:48:24;11.48;;;4.25;;
67053;SDS011;53960;51.826;5.850;2023-07-08T13:50:57;11.63;;;4.50;;
67053;SDS011;53960;51.826;5.850;2023-07-08T13:56:03;9.60;;;4.60;;
67053;SDS011;53960;51.826;5.850;2023-07-08T13:59:00;11.40;;;4.85;;
67053;SDS011;53960;51.826;5.850;2023-07-08T14:01:28;12.77;;;4.65;;
67053;SDS011;53960;51.826;5.850;2023-07-08T14:03:55;11.30;;;5.27;;
67053;SDS011;53960;51.826;5.850;2023-07-08T14:06:25;10.98;;;5.00;;
67053;SDS011;53960;51.826;5.850;2023-07-08T14:08:54;10.10;;;4.55;;
67053;SDS011;53960;51.826;5.850;2023-07-08T14:11:21;10.30;;;4.90;;
67053;SDS011;53960;51.826;5.850;2023-07-08T14:13:47;10.30;;;4.40;;
67053;SDS011;53960;51.826;5.850;2023-07-08T14:16:28;11.88;;;4.97;;
67053;SDS011;53960;51.826;5.850;2023-07-08T14:18:56;11.38;;;4.70;;
67053;SDS011;53960;51.826;5.850;2023-07-08T14:21:23;10.93;;;4.33;;
67053;SDS011;53960;51.826;5.850;2023-07-08T14:23:49;9.88;;;4.40;;
67053;SDS011;53960;51.826;5.850;2023-07-08T14:26:15;12.80;;;4.63;;
67053;SDS011;53960;51.826;5.850;2023-07-08T14:28:40;10.70;;;4.90;;
67053;SDS011;53960;51.826;5.850;2023-07-08T14:31:10;12.33;;;4.97;;
67053;SDS011;53960;51.826;5.850;2023-07-08T14:33:37;10.63;;;4.78;;
67053;SDS011;53960;51.826;5.850;2023-07-08T14:36:06;10.88;;;4.97;;
67053;SDS011;53960;51.826;5.850;2023-07-08T14:38:34;10.88;;;4.80;;
67053;SDS011;53960;51.826;5.850;2023-07-08T14:41:00;10.23;;;4.37;;
67053;SDS011;53960;51.826;5.850;2023-07-08T14:43:29;10.43;;;4.28;;
67053;SDS011;53960;51.826;5.850;2023-07-08T14:45:58;11.23;;;4.88;;
67053;SDS011;53960;51.826;5.850;2023-07-08T14:48:27;9.83;;;4.10;;
67053;SDS011;53960;51.826;5.850;2023-07-08T14:50:54;9.82;;;4.22;;
67053;SDS011;53960;51.826;5.850;2023-07-08T14:53:19;10.23;;;4.67;;
67053;SDS011;53960;51.826;5.850;2023-07-08T14:55:46;10.60;;;4.32;;
67053;SDS011;53960;51.826;5.850;2023-07-08T14:58:17;10.10;;;4.25;;
67053;SDS011;53960;51.826;5.850;2023-07-08T15:00:50;10.00;;;4.00;;
67053;SDS011;53960;51.826;5.850;2023-07-08T15:03:17;11.38;;;4.82;;
67053;SDS011;53960;51.826;5.850;2023-07-08T15:05:42;10.52;;;4.47;;
67053;SDS011;53960;51.826;5.850;2023-07-08T15:08:09;9.57;;;4.15;;
67053;SDS011;53960;51.826;5.850;2023-07-08T15:10:34;11.13;;;4.63;;
67053;SDS011;53960;51.826;5.850;2023-07-08T15:13:01;10.05;;;4.28;;
67053;SDS011;53960;51.826;5.850;2023-07-08T15:15:28;10.63;;;4.80;;
67053;SDS011;53960;51.826;5.850;2023-07-08T15:17:55;9.07;;;4.23;;
67053;SDS011;53960;51.826;5.850;2023-07-08T15:20:21;12.15;;;4.13;;
67053;SDS011;53960;51.826;5.850;2023-07-08T15:22:47;10.48;;;4.53;;
67053;SDS011;53960;51.826;5.850;2023-07-08T15:25:13;9.87;;;4.17;;
67053;SDS011;53960;51.826;5.850;2023-07-08T15:27:40;10.18;;;4.72;;
67053;SDS011;53960;51.826;5.850;2023-07-08T15:30:19;10.90;;;4.47;;
67053;SDS011;53960;51.826;5.850;2023-07-08T15:32:46;9.85;;;4.05;;
67053;SDS011;53960;51.826;5.850;2023-07-08T15:35:15;11.67;;;4.23;;
67053;SDS011;53960;51.826;5.850;2023-07-08T15:37:45;11.43;;;4.10;;
67053;SDS011;53960;51.826;5.850;2023-07-08T15:40:12;9.48;;;4.00;;
67053;SDS011;53960;51.826;5.850;2023-07-08T15:42:39;10.87;;;4.13;;
67053;SDS011;53960;51.826;5.850;2023-07-08T15:45:15;12.05;;;4.55;;
67053;SDS011;53960;51.826;5.850;2023-07-08T15:47:45;10.90;;;4.43;;
67053;SDS011;53960;51.826;5.850;2023-07-08T15:50:11;10.13;;;4.20;;
67053;SDS011;53960;51.826;5.850;2023-07-08T15:52:44;11.00;;;4.20;;
67053;SDS011;53960;51.826;5.850;2023-07-08T15:55:11;10.75;;;4.53;;